KDNN/DNN METAR and TAF weather

Enter ICAO airport designator
Station Type Date Time Source
KDNN METAR 2020/09/23 19:15 UTC NOAA

KDNN 231915Z AUTO 34004KT 10SM CLR 24/09 A3006 RMK AO2


Station Type Date Time Source
KDNN Decoded METAR 2020/09/23 19:15 UTC NOAA

Dalton, Dalton Municipal Airport, GA, United States (KDNN) 34-43-18N 084-52-09W
Sep 23, 2020 - 03:15 PM EDT / 2020.09.23 1915 UTC
Wind: from the NNW (340 degrees) at 5 MPH (4 KT):0
Visibility: 10 mile(s):0
Sky conditions: clear
Temperature: 75 F (24 C)
Dew Point: 48 F (9 C)
Relative Humidity: 38%
Pressure (altimeter): 30.06 in. Hg (1017 hPa)
ob: KDNN 231915Z AUTO 34004KT 10SM CLR 24/09 A3006 RMK AO2
cycle: 19

Station Type Date Time Source
KDNN TAF UTC NOAA

Error!

Example: see airport list